Time;durP1;ratioP1;P1;durP2;ratioP2;P2;SDS_P1;SDS_P2;PMS_P1;PMS_P2;Temp;Humidity;BMP_temperature;BMP_pressure;BME280_temperature;BME280_humidity;BME280_pressure;Samples;Min_cycle;Max_cycle;Signal;HPM_P1;HPM_P2
2022/01/06 00:00:07;;;;;;;23.40;2.38;;;4.00;99.90;;;;;;5141633;27;20071;-80
2022/01/06 00:02:33;;;;;;;10.57;1.92;;;4.00;99.90;;;;;;5123246;27;20059;-79
2022/01/06 00:04:58;;;;;;;14.98;1.55;;;4.00;99.90;;;;;;5105098;27;20042;-77
2022/01/06 00:07:24;;;;;;;18.02;1.90;;;4.00;99.90;;;;;;5125624;27;20039;-78
2022/01/06 00:09:51;;;;;;;8.13;1.27;;;4.00;99.90;;;;;;5125776;27;20489;-75
2022/01/06 00:12:19;;;;;;;7.15;1.40;;;4.20;99.90;;;;;;5107630;27;20039;-75
2022/01/06 00:15:02;;;;;;;8.13;1.02;;;4.00;99.90;;;;;;5106287;27;20074;-75
2022/01/06 00:17:58;;;;;;;9.50;1.10;;;3.90;99.90;;;;;;5108345;27;20039;-75
2022/01/06 00:25:46;;;;;;;12.73;1.27;;;4.00;99.90;;;;;;5125814;27;20499;-77
2022/01/06 00:28:12;;;;;;;14.60;2.55;;;4.00;99.90;;;;;;5125693;27;20115;-76
2022/01/06 00:30:38;;;;;;;14.32;1.85;;;4.10;99.90;;;;;;5105398;28;20047;-78
2022/01/06 00:33:03;;;;;;;10.95;1.70;;;4.00;99.90;;;;;;5121838;28;20047;-75
2022/01/06 00:35:29;;;;;;;14.55;1.50;;;4.50;99.90;;;;;;5125193;27;20050;-77
2022/01/06 00:37:54;;;;;;;19.52;2.78;;;4.10;99.90;;;;;;5144840;27;20037;-79
2022/01/06 00:40:20;;;;;;;14.02;2.88;;;4.20;99.90;;;;;;5106165;27;20573;-76
2022/01/06 00:42:45;;;;;;;14.93;2.03;;;4.10;99.90;;;;;;5122860;28;20209;-78
2022/01/06 00:45:11;;;;;;;25.30;2.92;;;4.10;99.90;;;;;;5122376;27;20050;-77
2022/01/06 00:47:37;;;;;;;15.80;1.88;;;5.30;99.90;;;;;;5108527;27;20035;-79
2022/01/06 00:50:03;;;;;;;15.23;2.05;;;3.90;99.90;;;;;;5108301;27;20129;-76
2022/01/06 00:52:29;;;;;;;11.90;2.08;;;4.10;99.90;;;;;;5123587;27;20375;-76
2022/01/06 00:54:54;;;;;;;22.35;2.22;;;4.00;99.90;;;;;;5121880;28;20049;-77
2022/01/06 00:57:20;;;;;;;8.55;1.73;;;4.10;99.90;;;;;;5106208;27;20127;-77
2022/01/06 00:59:45;;;;;;;28.30;2.80;;;4.10;99.90;;;;;;5144537;27;20034;-76
2022/01/06 01:02:11;;;;;;;13.35;1.83;;;5.40;99.90;;;;;;5125392;27;20042;-75
2022/01/06 01:04:36;;;;;;;18.83;2.28;;;4.00;99.90;;;;;;5122198;28;20406;-75
2022/01/06 01:07:02;;;;;;;17.65;2.72;;;4.00;99.90;;;;;;5121802;28;20050;-79
2022/01/06 01:09:29;;;;;;;21.52;2.28;;;4.00;99.90;;;;;;5106691;27;20039;-79
2022/01/06 01:11:55;;;;;;;16.35;2.10;;;3.80;99.90;;;;;;5108848;27;20438;-78
2022/01/06 01:14:28;;;;;;;16.25;2.53;;;4.00;99.90;;;;;;5123990;27;20099;-79
2022/01/06 01:16:59;;;;;;;25.73;3.47;;;4.00;99.90;;;;;;5140461;27;20498;-79
2022/01/06 01:19:26;;;;;;;11.82;2.22;;;4.00;99.90;;;;;;5106640;27;20039;-79
2022/01/06 01:21:53;;;;;;;22.05;2.67;;;3.90;99.90;;;;;;5107968;27;20079;-78
2022/01/06 01:24:19;;;;;;;15.73;2.33;;;3.90;99.90;;;;;;5107690;27;20055;-78
2022/01/06 01:26:45;;;;;;;19.33;3.17;;;3.90;99.90;;;;;;5105418;28;20027;-79
2022/01/06 01:29:17;;;;;;;18.13;2.38;;;3.90;99.90;;;;;;5104067;28;20103;-77
2022/01/06 01:31:47;;;;;;;14.15;2.42;;;4.30;99.90;;;;;;5113396;28;20386;-79
2022/01/06 01:34:13;;;;;;;14.15;2.13;;;6.00;99.90;;;;;;5122323;28;20043;-79
2022/01/06 01:36:39;;;;;;;13.15;1.50;;;3.90;99.90;;;;;;5109680;27;20041;-78
2022/01/06 01:39:06;;;;;;;17.60;2.30;;;3.80;99.90;;;;;;5111803;27;20057;-76
2022/01/06 01:41:32;;;;;;;17.85;2.20;;;3.80;99.90;;;;;;5126492;27;20053;-75
2022/01/06 01:43:58;;;;;;;16.27;2.58;;;3.80;99.90;;;;;;5124851;27;20406;-79
2022/01/06 01:46:30;;;;;;;28.95;3.13;;;5.20;99.90;;;;;;5126535;27;20049;-78
2022/01/06 01:51:42;;;;;;;17.42;2.42;;;3.80;99.90;;;;;;5125129;27;20046;-79
2022/01/06 01:54:09;;;;;;;14.77;3.00;;;3.80;99.90;;;;;;5125364;27;20394;-79
2022/01/06 01:56:35;;;;;;;19.63;2.47;;;3.70;99.90;;;;;;5127210;27;20055;-79
2022/01/06 01:59:00;;;;;;;16.83;2.53;;;3.70;99.90;;;;;;5128717;27;20043;-79
2022/01/06 02:01:26;;;;;;;19.55;2.53;;;3.70;99.90;;;;;;5127221;27;20046;-79
2022/01/06 02:03:52;;;;;;;20.35;3.78;;;3.30;99.90;;;;;;5107500;27;20082;-79
2022/01/06 02:06:18;;;;;;;18.42;3.00;;;3.50;99.90;;;;;;5124951;27;20035;-76
2022/01/06 02:08:45;;;;;;;16.42;2.70;;;3.60;99.90;;;;;;5128828;27;20038;-79
2022/01/06 02:11:10;;;;;;;20.73;3.08;;;3.50;99.90;;;;;;5146182;27;20113;-79
2022/01/06 02:13:54;;;;;;;17.50;2.88;;;3.50;99.90;;;;;;5108828;27;20141;-78
2022/01/06 02:16:26;;;;;;;18.35;2.15;;;3.60;99.90;;;;;;5107919;27;20045;-78
2022/01/06 02:18:52;;;;;;;22.27;2.88;;;3.50;99.90;;;;;;5111062;27;20053;-78
2022/01/06 02:21:19;;;;;;;21.48;2.28;;;3.50;99.90;;;;;;5110726;27;20062;-78
2022/01/06 02:23:45;;;;;;;16.52;2.50;;;3.40;99.90;;;;;;5143919;27;20410;-79
2022/01/06 02:26:11;;;;;;;14.85;2.72;;;4.20;99.90;;;;;;5107184;27;20046;-78
2022/01/06 02:28:37;;;;;;;14.57;3.42;;;3.30;99.90;;;;;;5145633;27;20364;-78
2022/01/06 02:31:03;;;;;;;13.65;2.10;;;3.40;99.90;;;;;;5146427;27;20114;-78
2022/01/06 02:33:28;;;;;;;14.57;2.85;;;3.40;99.90;;;;;;5110825;27;20038;-77
2022/01/06 02:35:55;;;;;;;25.30;3.42;;;3.40;99.90;;;;;;5110764;27;20405;-77
2022/01/06 02:38:22;;;;;;;20.33;2.72;;;3.40;99.90;;;;;;5128171;27;20035;-77
2022/01/06 02:40:48;;;;;;;18.30;2.25;;;3.40;99.90;;;;;;5123970;27;20057;-76
2022/01/06 02:43:17;;;;;;;21.75;4.00;;;3.40;99.90;;;;;;5124691;27;20031;-75
2022/01/06 02:45:46;;;;;;;22.83;2.53;;;3.40;99.90;;;;;;5126841;27;20043;-77
2022/01/06 02:48:14;;;;;;;19.10;2.50;;;3.40;99.90;;;;;;5127794;27;20134;-77
2022/01/06 02:50:43;;;;;;;14.15;1.67;;;2.90;99.90;;;;;;5124796;27;20051;-77
2022/01/06 02:53:10;;;;;;;12.18;1.98;;;3.40;99.90;;;;;;5123669;27;20039;-78
2022/01/06 02:55:38;;;;;;;19.38;2.53;;;3.40;99.90;;;;;;5126105;27;20090;-78
2022/01/06 02:58:04;;;;;;;15.60;1.95;;;3.40;99.90;;;;;;5110544;27;20038;-78
2022/01/06 03:00:30;;;;;;;15.80;2.47;;;3.40;99.90;;;;;;5125620;27;20064;-77
2022/01/06 03:02:55;;;;;;;24.70;3.13;;;3.40;99.90;;;;;;5107108;27;20046;-78
2022/01/06 03:05:21;;;;;;;11.98;2.63;;;4.30;99.90;;;;;;5106994;27;20039;-76
2022/01/06 03:07:47;;;;;;;13.32;2.20;;;3.40;99.90;;;;;;5124092;27;20035;-79
2022/01/06 03:10:16;;;;;;;15.15;1.75;;;3.40;99.90;;;;;;5123391;27;20039;-78
2022/01/06 03:12:45;;;;;;;15.43;3.17;;;3.40;99.90;;;;;;5126540;27;20126;-78
2022/01/06 03:15:18;;;;;;;14.57;1.60;;;3.40;99.90;;;;;;5109408;27;20089;-78
2022/01/06 03:17:48;;;;;;;12.52;2.20;;;3.30;99.90;;;;;;5124738;27;20086;-78
2022/01/06 03:20:15;;;;;;;22.95;3.28;;;3.30;99.90;;;;;;5123894;27;20070;-79
2022/01/06 03:22:42;;;;;;;16.08;2.53;;;3.30;99.90;;;;;;5108336;27;20481;-78
2022/01/06 03:25:09;;;;;;;14.68;1.92;;;3.30;99.90;;;;;;5127196;27;20034;-78
2022/01/06 03:27:35;;;;;;;17.08;2.17;;;3.30;99.90;;;;;;5108573;27;20042;-78
2022/01/06 03:30:01;;;;;;;17.35;2.60;;;3.30;99.90;;;;;;5105451;27;20080;-78
2022/01/06 03:32:27;;;;;;;20.95;2.38;;;3.20;99.90;;;;;;5106626;27;20167;-75
2022/01/06 03:34:53;;;;;;;8.27;1.30;;;3.30;99.90;;;;;;5109483;27;20133;-78
2022/01/06 03:37:18;;;;;;;20.52;2.28;;;3.20;99.90;;;;;;5145367;27;20042;-77
2022/01/06 03:39:44;;;;;;;12.15;2.05;;;3.20;99.90;;;;;;5123583;27;20191;-75
2022/01/06 03:42:11;;;;;;;14.48;1.90;;;3.20;99.90;;;;;;5105995;27;20138;-77
2022/01/06 03:44:37;;;;;;;9.27;2.08;;;3.10;99.90;;;;;;5124982;27;20167;-79
2022/01/06 03:47:03;;;;;;;10.18;1.63;;;3.00;99.90;;;;;;5126582;27;20125;-79
2022/01/06 03:49:29;;;;;;;14.20;1.65;;;3.10;99.90;;;;;;5107935;27;20569;-78
2022/01/06 03:51:54;;;;;;;9.70;1.45;;;2.90;99.90;;;;;;5123379;27;20122;-79
2022/01/06 03:54:20;;;;;;;22.17;2.08;;;2.90;99.90;;;;;;5123129;27;20054;-78
2022/01/06 03:56:48;;;;;;;13.18;2.42;;;2.80;99.90;;;;;;5125581;27;20071;-79
2022/01/06 03:59:17;;;;;;;16.10;2.15;;;2.80;99.90;;;;;;5126180;27;20034;-78
2022/01/06 04:01:43;;;;;;;17.58;1.80;;;2.70;99.90;;;;;;5109680;27;20077;-79
2022/01/06 04:04:10;;;;;;;19.48;2.60;;;2.60;99.90;;;;;;5144095;27;20110;-78
2022/01/06 04:06:36;;;;;;;20.95;2.20;;;2.60;99.90;;;;;;5143614;27;20042;-79
2022/01/06 04:09:03;;;;;;;19.90;2.88;;;2.60;99.90;;;;;;5140955;27;20043;-78
2022/01/06 04:11:29;;;;;;;14.68;2.63;;;2.60;99.90;;;;;;5122388;27;20375;-76
2022/01/06 04:13:55;;;;;;;15.38;3.20;;;2.70;99.90;;;;;;5126321;27;20039;-79
2022/01/06 04:16:21;;;;;;;13.30;2.25;;;2.60;99.90;;;;;;5109114;27;20042;-79
2022/01/06 04:18:47;;;;;;;19.52;2.50;;;2.50;99.90;;;;;;5122777;27;20050;-78
2022/01/06 04:21:13;;;;;;;15.45;2.05;;;2.50;99.90;;;;;;5122573;27;20038;-78
2022/01/06 04:23:39;;;;;;;15.63;2.15;;;2.40;99.90;;;;;;5107223;27;20099;-78
2022/01/06 04:26:04;;;;;;;17.50;3.67;;;2.50;99.90;;;;;;5125703;27;20039;-79
2022/01/06 04:28:30;;;;;;;16.58;1.90;;;2.40;99.90;;;;;;5108648;27;20054;-79
2022/01/06 04:30:55;;;;;;;12.68;2.08;;;2.20;99.90;;;;;;5122368;28;20115;-79
2022/01/06 04:33:21;;;;;;;14.77;2.10;;;2.30;99.90;;;;;;5122024;28;20031;-79
2022/01/06 04:35:47;;;;;;;15.45;2.10;;;2.30;99.90;;;;;;5144057;27;20051;-79
2022/01/06 04:38:13;;;;;;;15.50;1.90;;;2.20;99.90;;;;;;5144052;27;20144;-78
2022/01/06 04:40:38;;;;;;;17.92;2.20;;;1.60;99.90;;;;;;5142594;27;20494;-79
2022/01/06 04:43:05;;;;;;;15.77;1.88;;;2.30;99.90;;;;;;5141027;27;20049;-78
2022/01/06 04:45:30;;;;;;;15.88;1.73;;;2.10;99.90;;;;;;5140229;27;20170;-78
2022/01/06 04:47:56;;;;;;;11.55;1.63;;;2.10;99.90;;;;;;5108848;27;20490;-78
2022/01/06 04:50:22;;;;;;;21.15;2.72;;;2.10;99.90;;;;;;5144472;27;20039;-78
2022/01/06 04:52:47;;;;;;;12.38;1.67;;;2.60;99.90;;;;;;5141599;27;20517;-77
2022/01/06 04:55:13;;;;;;;13.02;2.03;;;2.80;99.90;;;;;;5105566;28;20043;-77
2022/01/06 04:57:39;;;;;;;16.80;1.85;;;2.00;99.90;;;;;;5106823;27;20124;-76
2022/01/06 05:00:06;;;;;;;11.13;1.90;;;1.90;99.90;;;;;;5124886;27;20050;-78
2022/01/06 05:02:31;;;;;;;13.48;1.70;;;1.90;99.90;;;;;;5109052;27;20034;-76
2022/01/06 05:04:57;;;;;;;14.48;2.45;;;2.30;99.90;;;;;;5122042;28;20061;-77
2022/01/06 05:07:23;;;;;;;23.02;3.80;;;1.80;99.90;;;;;;5121178;28;20042;-76
2022/01/06 05:09:48;;;;;;;17.13;2.13;;;1.80;99.90;;;;;;5107514;27;20107;-76
2022/01/06 05:12:14;;;;;;;15.23;2.45;;;1.80;99.90;;;;;;5129462;27;20035;-75
2022/01/06 05:14:40;;;;;;;20.88;2.47;;;1.80;99.90;;;;;;5111051;27;20483;-75
2022/01/06 05:17:07;;;;;;;15.18;3.15;;;1.90;99.90;;;;;;5108969;27;20046;-78
2022/01/06 05:19:32;;;;;;;18.10;3.08;;;1.60;99.90;;;;;;5125904;27;20069;-78
2022/01/06 05:21:59;;;;;;;14.95;3.67;;;1.60;99.90;;;;;;5120738;27;20481;-78
2022/01/06 05:24:25;;;;;;;15.07;2.53;;;1.60;99.90;;;;;;5129795;27;20070;-79
2022/01/06 05:26:51;;;;;;;15.43;2.20;;;1.70;99.90;;;;;;5110056;27;20074;-76
2022/01/06 05:29:16;;;;;;;11.95;2.03;;;1.60;99.90;;;;;;5125201;27;20082;-78
2022/01/06 05:31:42;;;;;;;16.80;2.13;;;1.60;99.90;;;;;;5108935;27;20465;-78
2022/01/06 05:34:08;;;;;;;18.08;2.92;;;1.50;99.90;;;;;;5108755;27;20031;-76
2022/01/06 05:36:34;;;;;;;19.60;2.42;;;1.50;99.90;;;;;;5125203;27;20122;-74
2022/01/06 05:39:01;;;;;;;21.02;2.85;;;1.30;99.90;;;;;;5116737;27;20135;-75
2022/01/06 05:41:26;;;;;;;13.40;2.17;;;1.40;99.90;;;;;;5108192;27;20401;-76
2022/01/06 05:43:52;;;;;;;21.58;3.25;;;1.40;99.90;;;;;;5128097;27;20147;-76
2022/01/06 05:46:18;;;;;;;15.98;2.25;;;1.30;99.90;;;;;;5112281;27;20370;-75
2022/01/06 05:48:45;;;;;;;21.45;2.85;;;1.80;99.90;;;;;;5127192;27;20491;-76
2022/01/06 05:51:11;;;;;;;20.13;2.38;;;1.30;99.90;;;;;;5125393;27;20534;-77
2022/01/06 05:53:36;;;;;;;19.23;2.53;;;3.10;99.90;;;;;;5108929;27;20095;-78
2022/01/06 05:56:02;;;;;;;13.50;2.10;;;1.40;99.90;;;;;;5128277;27;20027;-78
2022/01/06 05:58:28;;;;;;;15.45;3.10;;;2.50;99.90;;;;;;5129166;27;20035;-78
2022/01/06 06:00:54;;;;;;;16.02;1.90;;;1.40;99.90;;;;;;5108932;27;20481;-78
2022/01/06 06:03:19;;;;;;;14.18;2.15;;;1.30;99.90;;;;;;5107428;27;20035;-77
2022/01/06 06:05:45;;;;;;;20.50;2.88;;;2.60;99.90;;;;;;5109724;27;20039;-78
2022/01/06 06:08:11;;;;;;;13.00;2.03;;;1.40;99.90;;;;;;5111378;27;20132;-78
2022/01/06 06:10:37;;;;;;;24.30;2.63;;;0.70;99.90;;;;;;5127734;27;20118;-78
2022/01/06 06:13:03;;;;;;;19.33;3.45;;;1.30;99.90;;;;;;5107985;27;20111;-77
2022/01/06 06:15:34;;;;;;;16.75;2.30;;;0.80;99.90;;;;;;5108300;27;20394;-78
2022/01/06 06:18:04;;;;;;;23.00;3.65;;;1.20;99.90;;;;;;5127629;27;20039;-77
2022/01/06 06:20:30;;;;;;;10.63;1.67;;;1.30;99.90;;;;;;5111255;27;20086;-76
2022/01/06 06:22:56;;;;;;;17.85;2.30;;;1.30;99.90;;;;;;5125590;27;20089;-76
2022/01/06 06:25:22;;;;;;;17.02;2.20;;;1.20;99.90;;;;;;5123956;27;20039;-78
2022/01/06 06:27:47;;;;;;;15.35;2.50;;;1.20;99.90;;;;;;5144890;27;20040;-78
2022/01/06 06:30:13;;;;;;;13.95;2.60;;;1.10;99.90;;;;;;5127964;27;20046;-78
2022/01/06 06:32:39;;;;;;;12.00;2.97;;;1.10;99.90;;;;;;5146243;27;20101;-78
2022/01/06 06:35:06;;;;;;;15.02;2.30;;;1.10;99.90;;;;;;5107623;27;20496;-78
2022/01/06 06:37:31;;;;;;;13.05;2.70;;;1.10;99.90;;;;;;5124652;27;20092;-78
2022/01/06 06:39:57;;;;;;;20.35;3.53;;;1.50;99.90;;;;;;5125735;27;20441;-78
2022/01/06 06:42:27;;;;;;;20.15;2.67;;;0.90;99.90;;;;;;5111109;27;20043;-78
2022/01/06 06:44:53;;;;;;;19.85;2.33;;;1.00;99.90;;;;;;5125565;27;20426;-78
2022/01/06 06:47:19;;;;;;;21.95;2.72;;;1.00;99.90;;;;;;5107535;27;20118;-77
2022/01/06 06:49:44;;;;;;;22.63;3.83;;;2.10;99.90;;;;;;5107691;27;20475;-78
2022/01/06 06:52:10;;;;;;;20.63;3.03;;;1.00;99.90;;;;;;5110043;27;20103;-78
2022/01/06 06:54:36;;;;;;;21.33;3.30;;;1.00;99.90;;;;;;5128116;27;20111;-76
2022/01/06 06:57:01;;;;;;;22.73;2.83;;;3.40;99.90;;;;;;5107684;27;20038;-77
2022/01/06 06:59:27;;;;;;;15.13;2.35;;;1.00;99.90;;;;;;5106439;27;20503;-78
2022/01/06 07:01:53;;;;;;;23.88;3.35;;;1.00;99.90;;;;;;5125749;27;20035;-78
2022/01/06 07:04:18;;;;;;;21.40;2.95;;;1.00;99.90;;;;;;5110768;27;20393;-78
2022/01/06 07:06:44;;;;;;;22.70;2.95;;;1.10;99.90;;;;;;5144991;27;20035;-78
2022/01/06 07:09:09;;;;;;;11.52;2.35;;;1.10;99.90;;;;;;5123671;27;20047;-78
2022/01/06 07:11:35;;;;;;;25.00;3.08;;;1.10;99.90;;;;;;5107243;27;20050;-78
2022/01/06 07:14:01;;;;;;;14.00;2.53;;;1.10;99.90;;;;;;5144857;27;20511;-77
2022/01/06 07:16:26;;;;;;;17.48;4.45;;;1.00;99.90;;;;;;5127225;27;20050;-77
2022/01/06 07:18:52;;;;;;;20.35;4.07;;;1.70;99.90;;;;;;5125639;27;20099;-77
2022/01/06 07:21:18;;;;;;;16.45;3.42;;;1.20;99.90;;;;;;5123024;27;20398;-75
2022/01/06 07:23:43;;;;;;;15.88;4.30;;;1.10;99.90;;;;;;5142597;27;20039;-78
2022/01/06 07:26:09;;;;;;;22.73;5.35;;;1.20;99.90;;;;;;5127398;27;20489;-76
2022/01/06 07:28:34;;;;;;;23.23;3.08;;;1.10;99.90;;;;;;5109197;27;20042;-77
2022/01/06 07:31:00;;;;;;;28.23;3.35;;;1.10;99.90;;;;;;5124768;27;20107;-77
2022/01/06 07:33:26;;;;;;;17.60;3.05;;;1.70;99.90;;;;;;5127841;27;20038;-80
2022/01/06 07:35:52;;;;;;;26.02;4.53;;;1.90;99.90;;;;;;5106316;27;20067;-76
2022/01/06 07:38:18;;;;;;;23.70;3.72;;;1.20;99.90;;;;;;5135274;27;20547;-75
2022/01/06 07:40:44;;;;;;;23.17;3.63;;;1.10;99.90;;;;;;5120795;27;20080;-77
2022/01/06 07:43:11;;;;;;;17.25;3.13;;;1.10;99.90;;;;;;5151426;27;20062;-77
2022/01/06 07:45:36;;;;;;;17.77;3.53;;;0.70;99.90;;;;;;5113718;27;20473;-78
2022/01/06 07:48:04;;;;;;;13.98;3.05;;;1.10;99.90;;;;;;5117283;27;20036;-78
2022/01/06 07:50:33;;;;;;;20.35;3.35;;;1.10;99.90;;;;;;5108362;27;20044;-78
2022/01/06 07:52:59;;;;;;;16.98;3.60;;;1.10;99.90;;;;;;5119830;27;20038;-78
2022/01/06 07:55:26;;;;;;;15.35;2.83;;;1.10;99.90;;;;;;5127078;27;20049;-78
2022/01/06 07:57:52;;;;;;;11.43;2.63;;;1.10;99.90;;;;;;5111253;27;20431;-77
2022/01/06 08:00:22;;;;;;;13.25;2.70;;;1.10;99.90;;;;;;5120401;27;20073;-76
2022/01/06 08:02:48;;;;;;;19.33;3.50;;;1.10;99.90;;;;;;5131145;27;20058;-76
2022/01/06 08:05:15;;;;;;;18.85;3.55;;;0.80;99.90;;;;;;5109652;27;20043;-78
2022/01/06 08:07:42;;;;;;;19.27;3.78;;;1.00;99.90;;;;;;5110769;27;20035;-79
2022/01/06 08:10:09;;;;;;;16.50;2.95;;;0.90;99.90;;;;;;5118616;27;20070;-79
2022/01/06 08:12:35;;;;;;;24.27;7.93;;;1.10;99.90;;;;;;5125164;27;20042;-76
2022/01/06 08:15:01;;;;;;;36.38;8.98;;;0.90;99.90;;;;;;5104575;27;20088;-79
2022/01/06 08:17:26;;;;;;;20.80;6.75;;;1.00;99.90;;;;;;5121976;27;20121;-78
2022/01/06 08:19:52;;;;;;;17.75;3.35;;;1.10;99.90;;;;;;5102865;27;20047;-78
2022/01/06 08:22:21;;;;;;;14.27;2.55;;;1.00;99.90;;;;;;5121849;27;20493;-76
2022/01/06 08:24:47;;;;;;;12.02;3.15;;;1.10;99.90;;;;;;5103953;28;20058;-79
2022/01/06 08:27:12;;;;;;;16.15;2.92;;;1.20;99.90;;;;;;5125407;27;20043;-78
2022/01/06 08:29:39;;;;;;;16.17;3.15;;;1.10;99.90;;;;;;5119100;27;20051;-79
2022/01/06 08:32:05;;;;;;;18.20;2.75;;;1.10;99.90;;;;;;5104763;27;20169;-78
2022/01/06 08:34:31;;;;;;;16.30;2.85;;;1.10;99.90;;;;;;5114104;28;20043;-77
2022/01/06 08:36:57;;;;;;;22.80;5.95;;;3.10;99.90;;;;;;5119795;27;20663;-78
2022/01/06 08:39:23;;;;;;;21.13;6.95;;;3.10;99.90;;;;;;5095615;28;20043;-79
2022/01/06 08:41:50;;;;;;;14.88;4.07;;;1.10;99.90;;;;;;5109641;27;20045;-76
2022/01/06 08:44:15;;;;;;;15.43;2.92;;;1.00;99.90;;;;;;5103856;27;20209;-78
2022/01/06 08:46:41;;;;;;;15.02;2.75;;;1.00;99.90;;;;;;5118044;27;20461;-78
2022/01/06 08:49:11;;;;;;;12.05;2.55;;;1.10;99.90;;;;;;5124600;27;20065;-78
2022/01/06 08:51:38;;;;;;;15.70;2.75;;;1.10;99.90;;;;;;5121740;27;20050;-78
2022/01/06 08:54:04;;;;;;;16.65;2.67;;;0.90;99.90;;;;;;5120959;27;20505;-79
2022/01/06 08:56:30;;;;;;;12.20;2.70;;;1.10;99.90;;;;;;5114629;27;20038;-79
2022/01/06 08:58:55;;;;;;;23.90;2.90;;;3.50;99.90;;;;;;5103539;27;20048;-79
2022/01/06 09:01:21;;;;;;;13.68;2.92;;;1.00;99.90;;;;;;5129774;27;20485;-78
2022/01/06 09:03:47;;;;;;;16.10;2.75;;;0.80;99.90;;;;;;5143767;27;20547;-75
2022/01/06 09:06:13;;;;;;;22.55;3.00;;;2.80;99.90;;;;;;5123905;27;20142;-77
2022/01/06 09:08:38;;;;;;;9.77;2.50;;;1.60;99.90;;;;;;5126561;27;20905;-77
2022/01/06 09:11:04;;;;;;;23.17;3.92;;;1.20;99.90;;;;;;5128261;27;20043;-76
2022/01/06 09:13:30;;;;;;;19.13;3.13;;;1.30;99.90;;;;;;5125659;27;20047;-77
2022/01/06 09:15:56;;;;;;;14.40;2.95;;;1.20;99.90;;;;;;5112174;27;20050;-76
2022/01/06 09:18:22;;;;;;;15.73;3.15;;;1.30;99.90;;;;;;5116376;27;20039;-77
2022/01/06 09:20:48;;;;;;;51.90;13.63;;;1.30;99.90;;;;;;5143693;27;20057;-78
2022/01/06 09:23:14;;;;;;;23.45;8.05;;;1.30;99.90;;;;;;5140262;27;20074;-78
2022/01/06 09:25:40;;;;;;;59.00;24.02;;;1.40;99.90;;;;;;5106036;27;20034;-79
2022/01/06 09:28:05;;;;;;;31.60;8.70;;;1.40;99.90;;;;;;5124434;27;20047;-78
2022/01/06 09:30:31;;;;;;;23.40;7.10;;;1.40;99.90;;;;;;5128575;27;20039;-82
2022/01/06 09:32:56;;;;;;;32.97;10.55;;;1.50;99.90;;;;;;5101832;27;20039;-86
2022/01/06 09:35:23;;;;;;;29.05;7.15;;;3.40;99.90;;;;;;5111547;27;20494;-78
2022/01/06 09:37:48;;;;;;;29.98;4.00;;;1.60;99.90;;;;;;5122970;27;20154;-77
2022/01/06 09:40:15;;;;;;;16.13;4.05;;;2.10;99.90;;;;;;5122552;27;20075;-77
2022/01/06 09:42:42;;;;;;;15.32;3.35;;;2.10;99.90;;;;;;5121634;27;20059;-77
2022/01/06 09:45:09;;;;;;;16.85;3.40;;;1.70;99.90;;;;;;5116374;27;20044;-78
2022/01/06 09:47:37;;;;;;;18.15;5.35;;;1.70;99.90;;;;;;5127484;27;20035;-78
2022/01/06 09:50:04;;;;;;;19.77;2.30;;;1.80;99.90;;;;;;5115186;27;20055;-80
2022/01/06 09:52:29;;;;;;;25.33;3.58;;;1.80;99.90;;;;;;5101434;27;20115;-79
2022/01/06 09:54:55;;;;;;;17.60;2.65;;;2.20;99.90;;;;;;5100539;28;20130;-78
2022/01/06 09:57:25;;;;;;;21.42;3.35;;;1.40;99.90;;;;;;5103053;27;20042;-80
2022/01/06 09:59:50;;;;;;;21.45;3.13;;;1.80;99.90;;;;;;4410295;27;10000725;-80
2022/01/06 10:02:16;;;;;;;22.63;3.50;;;2.00;99.90;;;;;;5119153;27;20044;-79
2022/01/06 10:04:56;;;;;;;17.27;3.53;;;2.30;99.90;;;;;;5125819;27;20047;-76
2022/01/06 10:07:22;;;;;;;20.63;3.53;;;2.10;99.90;;;;;;5108150;27;20039;-77
2022/01/06 10:09:50;;;;;;;16.35;3.20;;;2.20;99.90;;;;;;5124226;27;20051;-77
2022/01/06 10:12:16;;;;;;;22.67;2.67;;;2.30;99.90;;;;;;5103586;27;20059;-76
2022/01/06 10:14:50;;;;;;;23.77;3.65;;;1.90;99.90;;;;;;5124501;27;20079;-75
2022/01/06 10:17:28;;;;;;;18.37;3.27;;;2.40;99.90;;;;;;5103763;27;20490;-78
2022/01/06 10:19:54;;;;;;;19.30;3.78;;;2.40;99.90;;;;;;5103153;27;20405;-77
2022/01/06 10:22:21;;;;;;;26.17;3.22;;;2.50;99.90;;;;;;5115427;27;20043;-76
2022/01/06 10:24:48;;;;;;;18.80;3.13;;;2.50;99.90;;;;;;5122322;27;20043;-78
2022/01/06 10:27:16;;;;;;;20.20;3.20;;;2.00;99.90;;;;;;5121778;27;20044;-80
2022/01/06 10:29:48;;;;;;;25.33;5.05;;;2.60;99.90;;;;;;5104896;27;20035;-80
2022/01/06 10:32:25;;;;;;;24.77;3.60;;;2.70;99.90;;;;;;5121946;27;20039;-80
2022/01/06 10:34:53;;;;;;;24.88;4.18;;;2.60;99.90;;;;;;5114494;27;20052;-78
2022/01/06 10:37:39;;;;;;;20.73;4.35;;;2.60;99.90;;;;;;5118853;27;20453;-77
2022/01/06 10:40:06;;;;;;;19.95;4.05;;;2.80;99.90;;;;;;5098810;28;20139;-79
2022/01/06 10:42:34;;;;;;;25.65;4.78;;;2.90;99.90;;;;;;5106681;28;20454;-79
2022/01/06 10:45:11;;;;;;;30.77;4.45;;;2.90;99.90;;;;;;5104962;27;20042;-78
2022/01/06 10:47:43;;;;;;;19.83;3.88;;;3.00;99.90;;;;;;5122237;27;20566;-79
2022/01/06 10:50:19;;;;;;;116.97;63.17;;;3.00;99.90;;;;;;5106067;27;20513;-77
2022/01/06 10:53:01;;;;;;;24.23;4.78;;;3.50;99.90;;;;;;5112095;28;20036;-80
2022/01/06 10:55:33;;;;;;;25.42;4.78;;;3.20;99.90;;;;;;5121001;27;20050;-79
2022/01/06 10:58:02;;;;;;;16.30;3.85;;;3.20;99.90;;;;;;5103119;28;20035;-80
2022/01/06 11:00:32;;;;;;;23.58;4.70;;;4.00;99.90;;;;;;5123023;27;20084;-79
2022/01/06 11:03:28;;;;;;;22.38;4.93;;;3.30;99.90;;;;;;5107086;27;20047;-78
2022/01/06 11:05:59;;;;;;;20.83;3.90;;;3.30;99.90;;;;;;5121572;27;20084;-76
2022/01/06 11:08:27;;;;;;;28.40;4.90;;;3.40;99.90;;;;;;5103611;27;20402;-79
2022/01/06 11:13:38;;;;;;;36.83;5.50;;;3.50;99.90;;;;;;5122991;27;20043;-79
2022/01/06 11:16:04;;;;;;;25.35;3.97;;;3.60;99.90;;;;;;5125035;27;20140;-78
2022/01/06 11:18:31;;;;;;;22.05;4.07;;;3.70;99.90;;;;;;5119099;27;20502;-79
2022/01/06 11:21:10;;;;;;;19.63;4.07;;;3.80;99.90;;;;;;5107290;27;20077;-79
2022/01/06 11:23:36;;;;;;;21.92;3.20;;;4.00;99.90;;;;;;5102582;27;20045;-78
2022/01/06 11:26:03;;;;;;;22.10;3.50;;;4.00;99.90;;;;;;5124839;27;20035;-79
2022/01/06 11:28:32;;;;;;;22.33;3.58;;;4.20;99.90;;;;;;5121210;27;20048;-79
2022/01/06 11:31:18;;;;;;;21.13;3.50;;;4.20;99.90;;;;;;5124014;27;20047;-80
2022/01/06 11:33:46;;;;;;;18.25;3.20;;;4.40;99.90;;;;;;5111599;28;20067;-80
2022/01/06 11:36:30;;;;;;;20.27;4.22;;;3.90;99.90;;;;;;5102931;27;20036;-79
2022/01/06 11:38:57;;;;;;;23.70;4.38;;;4.40;99.90;;;;;;5125174;27;20050;-80
2022/01/06 11:41:41;;;;;;;14.93;3.22;;;4.50;99.90;;;;;;5108013;27;20461;-79
2022/01/06 11:44:18;;;;;;;15.60;2.93;;;4.60;99.90;;;;;;5106862;28;20035;-80
2022/01/06 11:46:45;;;;;;;22.35;3.65;;;4.40;99.90;;;;;;5121643;27;20288;-80
2022/01/06 11:49:11;;;;;;;20.67;3.03;;;6.50;99.90;;;;;;5119858;27;20047;-80
2022/01/06 11:51:37;;;;;;;16.50;2.70;;;4.80;99.90;;;;;;5121457;27;20046;-79
2022/01/06 11:54:18;;;;;;;17.40;4.22;;;4.90;99.90;;;;;;5119342;27;20050;-80
2022/01/06 11:56:47;;;;;;;26.27;4.05;;;4.90;99.90;;;;;;5095609;28;20066;-80
2022/01/06 11:59:13;;;;;;;20.35;3.45;;;4.90;99.90;;;;;;5123450;27;20050;-78
2022/01/06 12:01:48;;;;;;;26.10;8.32;;;5.00;99.90;;;;;;5109679;27;20166;-78
2022/01/06 12:04:22;;;;;;;15.90;2.92;;;5.00;99.90;;;;;;5129527;27;20643;-77
2022/01/06 12:06:48;;;;;;;19.38;2.97;;;5.00;99.90;;;;;;5097427;28;20039;-78
2022/01/06 12:09:22;;;;;;;22.95;3.65;;;5.00;99.90;;;;;;5100466;27;20421;-78
2022/01/06 12:12:03;;;;;;;20.75;2.80;;;5.10;99.90;;;;;;5103833;27;20122;-77
2022/01/06 12:14:29;;;;;;;20.90;3.10;;;5.10;99.90;;;;;;5116199;27;20517;-76
2022/01/06 12:17:07;;;;;;;24.65;3.83;;;5.10;99.90;;;;;;5124132;27;20027;-77
2022/01/06 12:19:33;;;;;;;16.02;2.72;;;5.10;99.90;;;;;;5104792;27;20055;-78
2022/01/06 12:21:59;;;;;;;18.13;2.97;;;5.10;99.90;;;;;;5115150;27;20040;-78
2022/01/06 12:24:25;;;;;;;14.68;2.50;;;5.10;99.90;;;;;;5112690;27;20058;-77
2022/01/06 12:26:51;;;;;;;17.73;2.15;;;5.20;99.90;;;;;;5095432;28;20035;-76
2022/01/06 12:29:20;;;;;;;18.58;3.17;;;5.20;99.90;;;;;;5121648;27;20081;-76
2022/01/06 12:31:47;;;;;;;19.77;2.97;;;5.20;99.90;;;;;;5111142;28;20071;-78
2022/01/06 12:34:14;;;;;;;17.50;2.60;;;5.30;99.90;;;;;;5116647;28;20086;-76
2022/01/06 12:36:43;;;;;;;17.73;2.25;;;5.20;99.90;;;;;;5113466;28;20051;-76
2022/01/06 12:39:18;;;;;;;13.95;2.60;;;5.30;99.90;;;;;;5096001;28;20051;-77
2022/01/06 12:41:47;;;;;;;17.15;2.00;;;5.30;99.90;;;;;;5109404;28;20047;-75
2022/01/06 12:44:25;;;;;;;13.88;2.35;;;5.90;99.90;;;;;;5120248;28;20047;-78
2022/01/06 12:46:51;;;;;;;20.25;3.10;;;6.80;99.90;;;;;;5122517;28;20074;-78
2022/01/06 12:49:20;;;;;;;13.88;2.80;;;5.40;99.90;;;;;;5102252;28;20747;-78
2022/01/06 12:51:46;;;;;;;17.25;2.30;;;5.10;99.90;;;;;;5099460;28;20486;-79
2022/01/06 12:54:17;;;;;;;9.02;2.25;;;5.40;99.90;;;;;;5121148;28;20047;-77
2022/01/06 12:57:02;;;;;;;14.93;2.63;;;5.40;99.90;;;;;;5112600;28;20050;-79
2022/01/06 12:59:34;;;;;;;13.30;2.30;;;5.40;99.90;;;;;;5100816;28;20040;-78